Terminal Aerodrome Forecast
Issued by NWS

Home | Current Version | Previous Version | Text Only | Print | Product List | Glossary On
Versions: 1 2 3 4 5 6 7 8 9 10 11 12 13 14 15 16 17
000
FTUS45 KSLC 170523
TAFEVW
TAF
KEVW 170523Z 1706/1806 19005KT P6SM SKC
     FM171800 23012G20KT P6SM FEW100
     FM180200 22010KT P6SM FEW100=

USA.gov is the U.S. government's official web portal to all federal, state and local government web resources and services.